Time;durP1;ratioP1;P1;durP2;ratioP2;P2;SDS_P1;SDS_P2;PMS_P1;PMS_P2;Temp;Humidity;BMP_temperature;BMP_pressure;BME280_temperature;BME280_humidity;BME280_pressure;Samples;Min_cycle;Max_cycle;Signal;HPM_P1;HPM_P2
2022/01/13 00:01:00;;;;;;;62.83;22.92;;;-2.00;99.90;;;;;;5046265;28;20424;-72
2022/01/13 00:03:26;;;;;;;66.70;23.67;;;-2.00;99.90;;;;;;5033778;28;20041;-73
2022/01/13 00:05:51;;;;;;;65.38;22.85;;;-2.00;99.90;;;;;;5039177;28;20476;-73
2022/01/13 00:08:17;;;;;;;59.88;23.65;;;-2.00;99.90;;;;;;5049542;28;20647;-72
2022/01/13 00:10:43;;;;;;;65.22;23.10;;;-2.10;99.90;;;;;;5050047;28;20440;-73
2022/01/13 00:13:10;;;;;;;67.28;22.35;;;-2.10;99.90;;;;;;5034071;28;20451;-73
2022/01/13 00:15:41;;;;;;;70.25;23.15;;;-2.20;99.90;;;;;;5039179;28;20041;-72
2022/01/13 00:19:03;;;;;;;62.80;22.88;;;-2.30;99.90;;;;;;5049346;28;20032;-73
2022/01/13 00:21:14;;;;;;;59.30;22.03;;;-2.30;99.90;;;;;;5031979;28;20045;-73
2022/01/13 00:26:16;;;;;;;61.95;22.15;;;-2.40;99.90;;;;;;5040272;28;20544;-73
2022/01/13 00:28:44;;;;;;;63.42;21.05;;;-2.40;99.90;;;;;;5033746;28;20481;-72
2022/01/13 00:31:11;;;;;;;59.33;21.63;;;-2.40;99.90;;;;;;5037599;28;20037;-71
2022/01/13 00:33:43;;;;;;;59.22;20.75;;;-2.40;99.90;;;;;;5040121;28;20036;-73
2022/01/13 00:36:09;;;;;;;57.92;20.27;;;-2.40;99.90;;;;;;5041725;28;20029;-73
2022/01/13 00:38:34;;;;;;;61.47;21.55;;;-2.30;99.90;;;;;;5045598;28;20086;-73
2022/01/13 00:41:00;;;;;;;55.95;20.15;;;-2.30;99.90;;;;;;5033342;28;20040;-72
2022/01/13 00:43:26;;;;;;;56.25;20.10;;;-2.20;99.90;;;;;;5041058;28;20032;-73
2022/01/13 00:45:52;;;;;;;53.35;20.02;;;-2.20;99.90;;;;;;5031857;28;20072;-74
2022/01/13 00:48:17;;;;;;;61.40;21.58;;;-2.10;99.90;;;;;;5047693;28;20025;-74
2022/01/13 00:50:43;;;;;;;58.53;20.45;;;-2.10;99.90;;;;;;5042447;28;20496;-73
2022/01/13 00:53:09;;;;;;;60.33;22.23;;;-2.00;99.90;;;;;;5046842;28;20036;-73
2022/01/13 00:58:32;;;;;;;59.53;22.17;;;-2.00;99.90;;;;;;5030362;28;20056;-74
2022/01/13 01:01:00;;;;;;;60.17;23.25;;;-2.00;99.90;;;;;;5035307;28;20030;-73
2022/01/13 01:03:26;;;;;;;59.97;23.20;;;-2.00;99.90;;;;;;5044112;28;20496;-73
2022/01/13 01:05:53;;;;;;;63.30;22.50;;;-2.00;99.90;;;;;;5034922;28;20474;-74
2022/01/13 01:08:19;;;;;;;54.65;21.70;;;-2.00;99.90;;;;;;5016652;28;20040;-73
2022/01/13 01:10:47;;;;;;;56.47;21.60;;;-2.00;99.90;;;;;;5036661;28;20030;-73
2022/01/13 01:13:17;;;;;;;63.13;21.40;;;-2.00;99.90;;;;;;5004996;28;1132031;-73
2022/01/13 01:15:47;;;;;;;62.97;22.02;;;-1.90;99.90;;;;;;5039122;28;20033;-74
2022/01/13 01:23:29;;;;;;;54.20;20.38;;;-1.80;99.90;;;;;;5043403;28;20090;-73
2022/01/13 01:26:08;;;;;;;57.95;20.85;;;-1.80;99.90;;;;;;5047139;28;20491;-75
2022/01/13 01:28:44;;;;;;;52.20;19.98;;;-1.80;99.90;;;;;;5035574;28;20036;-74
2022/01/13 01:31:11;;;;;;;51.05;19.45;;;-1.70;99.90;;;;;;5030652;28;20028;-72
2022/01/13 01:33:41;;;;;;;59.15;21.02;;;-1.70;99.90;;;;;;5048807;28;20461;-74
2022/01/13 01:36:12;;;;;;;57.47;21.38;;;-1.70;99.90;;;;;;5047948;28;20026;-73
2022/01/13 01:38:38;;;;;;;;;;;-1.70;99.90;;;;;;5016217;28;20030;-74
2022/01/13 01:41:04;;;;;;;50.85;19.50;;;-1.70;99.90;;;;;;5043317;28;19913;-73
2022/01/13 01:43:29;;;;;;;57.78;20.88;;;-1.60;99.90;;;;;;5041023;28;20410;-73
2022/01/13 01:45:55;;;;;;;59.95;22.30;;;-1.60;99.90;;;;;;5041441;28;20513;-74
2022/01/13 01:48:21;;;;;;;62.92;22.23;;;-1.60;99.90;;;;;;5037456;28;20665;-73
2022/01/13 01:50:55;;;;;;;60.80;22.23;;;-1.60;99.90;;;;;;5022478;28;20040;-73
2022/01/13 01:53:22;;;;;;;61.03;21.70;;;-1.60;99.90;;;;;;5037774;28;20780;-74
2022/01/13 01:55:48;;;;;;;60.75;22.00;;;-1.50;99.90;;;;;;5049306;28;20077;-74
2022/01/13 01:58:13;;;;;;;54.75;20.83;;;-1.60;99.90;;;;;;5045586;28;20122;-73
2022/01/13 02:00:39;;;;;;;54.70;20.33;;;-1.60;99.90;;;;;;5045758;28;20032;-74
2022/01/13 02:03:06;;;;;;;58.55;21.50;;;-1.60;99.90;;;;;;5047303;28;20041;-71
2022/01/13 02:05:32;;;;;;;58.72;20.95;;;-1.50;99.90;;;;;;5041984;28;20041;-72
2022/01/13 02:07:57;;;;;;;60.78;20.88;;;-1.50;99.90;;;;;;5048713;28;20377;-73
2022/01/13 02:10:23;;;;;;;64.95;23.27;;;-1.50;99.90;;;;;;5045629;28;20033;-74
2022/01/13 02:12:53;;;;;;;58.05;21.30;;;-1.40;99.90;;;;;;5046542;28;20029;-74
2022/01/13 02:15:33;;;;;;;57.63;21.35;;;-1.40;99.90;;;;;;5028384;28;20041;-74
2022/01/13 02:18:00;;;;;;;;;;;-1.40;99.90;;;;;;5017833;28;20083;-74
2022/01/13 02:20:41;;;;;;;60.45;20.40;;;-1.30;99.90;;;;;;5041508;28;19908;-73
2022/01/13 02:23:06;;;;;;;58.13;20.40;;;-1.30;99.90;;;;;;5038517;28;20273;-72
2022/01/13 02:25:32;;;;;;;61.15;22.10;;;-1.30;99.90;;;;;;5032828;28;20037;-74
2022/01/13 02:27:58;;;;;;;52.45;19.50;;;-1.30;99.90;;;;;;5047775;28;20029;-74
2022/01/13 02:30:23;;;;;;;60.55;20.83;;;-1.20;99.90;;;;;;5027264;28;20364;-74
2022/01/13 02:32:49;;;;;;;57.72;21.52;;;-1.20;99.90;;;;;;5046882;28;20365;-74
2022/01/13 02:35:14;;;;;;;60.03;21.73;;;-1.20;99.90;;;;;;5011061;28;20458;-74
2022/01/13 02:37:40;;;;;;;62.80;21.90;;;-1.30;99.90;;;;;;5034131;28;20049;-74
2022/01/13 02:40:06;;;;;;;54.67;21.30;;;-1.30;99.90;;;;;;5034951;28;20028;-72
2022/01/13 02:42:33;;;;;;;55.70;20.67;;;-1.40;99.90;;;;;;5030590;28;20037;-73
2022/01/13 02:45:03;;;;;;;62.47;22.60;;;-1.40;99.90;;;;;;5033117;28;20120;-73
2022/01/13 02:47:59;;;;;;;52.97;21.20;;;-1.30;99.90;;;;;;5031169;28;20029;-73
2022/01/13 02:50:19;;;;;;;60.20;20.92;;;-1.30;99.90;;;;;;5033351;28;20748;-73
2022/01/13 02:52:45;;;;;;;59.30;21.70;;;-1.30;99.90;;;;;;5038251;28;20036;-74
2022/01/13 02:55:11;;;;;;;61.47;22.48;;;-1.30;99.90;;;;;;5024049;28;20032;-74
2022/01/13 02:57:39;;;;;;;63.38;22.67;;;-1.30;99.90;;;;;;5041290;28;20040;-74
2022/01/13 03:00:07;;;;;;;62.83;22.67;;;-1.20;99.90;;;;;;5026328;28;20056;-74
2022/01/13 03:02:33;;;;;;;58.78;22.35;;;-1.20;99.90;;;;;;5045901;28;20025;-73
2022/01/13 03:04:59;;;;;;;64.70;22.83;;;-1.20;99.90;;;;;;5046352;28;20366;-74
2022/01/13 03:07:26;;;;;;;58.25;21.08;;;-1.10;99.90;;;;;;5046999;28;20957;-74
2022/01/13 03:09:52;;;;;;;61.25;22.33;;;-1.10;99.90;;;;;;5040307;28;20030;-74
2022/01/13 03:12:18;;;;;;;56.38;21.25;;;-1.20;99.90;;;;;;5044046;28;20025;-73
2022/01/13 03:14:43;;;;;;;56.25;21.35;;;-1.20;99.90;;;;;;5037358;28;20058;-73
2022/01/13 03:17:09;;;;;;;57.78;22.25;;;-1.20;99.90;;;;;;5027866;28;20720;-73
2022/01/13 03:19:35;;;;;;;57.72;21.73;;;-1.20;99.90;;;;;;5017980;28;20056;-73
2022/01/13 03:22:02;;;;;;;58.30;20.88;;;-1.20;99.90;;;;;;5031852;28;20494;-74
2022/01/13 03:24:30;;;;;;;57.95;21.13;;;-1.20;99.90;;;;;;5029779;28;20116;-74
2022/01/13 03:26:56;;;;;;;57.25;20.98;;;-1.20;99.90;;;;;;5030161;28;20119;-73
2022/01/13 03:29:23;;;;;;;56.70;22.63;;;-1.30;99.90;;;;;;5035135;28;20073;-73
2022/01/13 03:31:49;;;;;;;58.53;21.40;;;-1.20;99.90;;;;;;5039719;28;20033;-73
2022/01/13 03:34:16;;;;;;;65.18;22.55;;;-1.20;99.90;;;;;;5046714;28;20500;-73
2022/01/13 03:36:44;;;;;;;56.33;21.65;;;-1.20;99.90;;;;;;5035493;28;20026;-73
2022/01/13 03:39:11;;;;;;;56.72;21.40;;;-1.20;99.90;;;;;;5045790;28;20108;-70
2022/01/13 03:41:38;;;;;;;57.85;21.45;;;-1.10;99.90;;;;;;5040870;28;20037;-73
2022/01/13 03:44:07;;;;;;;61.33;22.10;;;-1.10;99.90;;;;;;5039955;28;20044;-74
2022/01/13 03:46:34;;;;;;;60.15;22.17;;;-1.20;99.90;;;;;;5038973;28;20042;-74
2022/01/13 03:49:00;;;;;;;63.65;22.25;;;-1.20;99.90;;;;;;5031682;28;20651;-73
2022/01/13 03:51:55;;;;;;;58.10;21.30;;;-1.20;99.90;;;;;;5015783;28;20056;-72
2022/01/13 03:54:36;;;;;;;59.92;21.42;;;-1.30;99.90;;;;;;5042705;28;20021;-74
2022/01/13 03:57:13;;;;;;;;;;;-1.30;99.90;;;;;;5047464;28;20048;-72
2022/01/13 04:00:00;;;;;;;54.83;19.95;;;-1.20;99.90;;;;;;5047313;28;19966;-74
2022/01/13 04:02:26;;;;;;;54.63;20.10;;;-1.20;99.90;;;;;;5032877;28;20036;-72
2022/01/13 04:04:52;;;;;;;58.95;20.55;;;-1.20;99.90;;;;;;5034732;28;20042;-72
2022/01/13 04:07:23;;;;;;;62.97;21.65;;;-1.20;99.90;;;;;;5043761;28;20025;-74
2022/01/13 04:09:49;;;;;;;59.38;21.35;;;-1.10;99.90;;;;;;5037333;28;20037;-73
2022/01/13 04:12:15;;;;;;;57.95;21.75;;;-1.10;99.90;;;;;;5041335;28;20033;-73
2022/01/13 04:17:16;;;;;;;61.22;21.80;;;-1.20;99.90;;;;;;5025720;28;20025;-72
2022/01/13 04:19:42;;;;;;;60.15;21.15;;;-1.10;99.90;;;;;;5042063;28;20047;-72
2022/01/13 04:22:09;;;;;;;54.45;20.10;;;-1.20;99.90;;;;;;5048501;28;20036;-73
2022/01/13 04:24:42;;;;;;;56.97;20.95;;;-1.10;99.90;;;;;;5047157;28;20060;-73
2022/01/13 04:27:09;;;;;;;58.63;21.23;;;-1.10;99.90;;;;;;5044245;28;20493;-73
2022/01/13 04:29:37;;;;;;;58.22;20.83;;;-1.10;99.90;;;;;;5049140;28;20102;-73
2022/01/13 04:32:05;;;;;;;61.42;21.52;;;-1.10;99.90;;;;;;5027463;28;20027;-73
2022/01/13 04:34:31;;;;;;;63.72;22.15;;;-1.10;99.90;;;;;;5049796;28;20127;-72
2022/01/13 04:36:58;;;;;;;61.90;20.85;;;-1.00;99.90;;;;;;5036382;28;20037;-74
2022/01/13 04:39:24;;;;;;;63.28;22.63;;;-1.00;99.90;;;;;;5024281;28;20097;-73
2022/01/13 04:41:52;;;;;;;57.72;21.25;;;-1.00;99.90;;;;;;5048034;28;20040;-73
2022/01/13 04:44:20;;;;;;;57.40;20.55;;;-1.00;99.90;;;;;;5046383;28;20088;-73
2022/01/13 04:46:47;;;;;;;65.13;21.88;;;-1.00;99.90;;;;;;5042266;28;20037;-73
2022/01/13 04:49:13;;;;;;;59.03;20.98;;;-0.90;99.90;;;;;;5026980;28;20053;-72
2022/01/13 04:51:40;;;;;;;60.83;21.83;;;-0.90;99.90;;;;;;5044068;28;20029;-73
2022/01/13 04:54:07;;;;;;;59.72;20.98;;;-1.00;99.90;;;;;;5043587;28;20109;-74
2022/01/13 04:59:06;;;;;;;57.10;20.05;;;-1.00;99.90;;;;;;5038181;28;20108;-73
2022/01/13 05:01:31;;;;;;;57.05;20.58;;;-1.00;99.90;;;;;;5040593;28;20552;-69
2022/01/13 05:03:57;;;;;;;56.20;21.08;;;-0.90;99.90;;;;;;5040650;28;20042;-72
2022/01/13 05:06:23;;;;;;;62.75;21.15;;;-0.90;99.90;;;;;;5040528;28;20032;-78
2022/01/13 05:08:50;;;;;;;63.00;21.67;;;-0.90;99.90;;;;;;5043120;28;20104;-78
2022/01/13 05:11:17;;;;;;;63.15;21.40;;;-0.90;99.90;;;;;;5045478;28;20033;-70
2022/01/13 05:13:43;;;;;;;55.67;21.17;;;-0.90;99.90;;;;;;5044247;28;20076;-74
2022/01/13 05:16:17;;;;;;;55.97;20.83;;;-0.90;99.90;;;;;;5043029;28;20036;-72
2022/01/13 05:21:19;;;;;;;59.35;21.70;;;-1.00;99.90;;;;;;5041217;28;20056;-73
2022/01/13 05:23:45;;;;;;;58.42;21.02;;;-0.90;99.90;;;;;;5048465;28;20051;-73
2022/01/13 05:26:12;;;;;;;58.47;20.92;;;-0.90;99.90;;;;;;5041368;28;20029;-71
2022/01/13 05:28:40;;;;;;;62.70;20.75;;;-0.90;99.90;;;;;;5033865;28;20907;-74
2022/01/13 05:31:05;;;;;;;60.85;21.58;;;-0.90;99.90;;;;;;5049438;28;20032;-74
2022/01/13 05:33:31;;;;;;;53.38;20.15;;;-0.90;99.90;;;;;;5039787;28;20084;-72
2022/01/13 05:35:57;;;;;;;61.13;22.38;;;-0.90;99.90;;;;;;5040189;28;20438;-76
2022/01/13 05:38:23;;;;;;;61.25;21.35;;;-0.90;99.90;;;;;;5047701;28;20025;-73
2022/01/13 05:40:48;;;;;;;55.40;21.27;;;-0.90;99.90;;;;;;5037674;28;20043;-74
2022/01/13 05:43:14;;;;;;;66.35;22.80;;;-0.90;99.90;;;;;;5036085;28;20037;-72
2022/01/13 05:45:40;;;;;;;56.20;21.38;;;-0.90;99.90;;;;;;5049506;28;20036;-76
2022/01/13 05:48:06;;;;;;;61.38;21.50;;;-0.90;99.90;;;;;;5046038;28;20044;-73
2022/01/13 05:50:32;;;;;;;57.97;20.98;;;-0.90;99.90;;;;;;5048856;28;20047;-73
2022/01/13 05:52:58;;;;;;;59.40;22.25;;;-0.80;99.90;;;;;;5030845;28;20033;-74
2022/01/13 05:55:24;;;;;;;58.75;21.75;;;-0.90;99.90;;;;;;5047784;28;20044;-72
2022/01/13 05:57:50;;;;;;;59.60;22.00;;;-0.90;99.90;;;;;;5040706;28;20033;-72
2022/01/13 06:00:18;;;;;;;60.90;21.58;;;-0.80;99.90;;;;;;5049406;28;20029;-70
2022/01/13 06:02:46;;;;;;;57.53;21.10;;;-0.80;99.90;;;;;;5046938;28;20040;-72
2022/01/13 06:05:12;;;;;;;58.38;21.30;;;-0.80;99.90;;;;;;5047604;28;20032;-74
2022/01/13 06:07:38;;;;;;;58.10;21.90;;;-0.70;99.90;;;;;;5047575;28;20665;-73
2022/01/13 06:10:06;;;;;;;63.13;21.58;;;-0.70;99.90;;;;;;5036790;28;20103;-72
2022/01/13 06:12:37;;;;;;;54.63;21.70;;;-0.70;99.90;;;;;;5037310;28;20493;-75
2022/01/13 06:15:14;;;;;;;61.80;21.45;;;-0.60;99.90;;;;;;5031453;28;20102;-73
2022/01/13 06:17:41;;;;;;;61.72;22.30;;;-0.60;99.90;;;;;;5048118;28;20029;-75
2022/01/13 06:20:09;;;;;;;55.92;21.42;;;-0.60;99.90;;;;;;5048769;28;20053;-75
2022/01/13 06:22:35;;;;;;;61.72;22.10;;;-0.70;99.90;;;;;;5035883;28;20029;-75
2022/01/13 06:25:04;;;;;;;60.80;21.75;;;-0.70;99.90;;;;;;5049351;28;20111;-75
2022/01/13 06:27:29;;;;;;;64.45;21.27;;;-0.70;99.90;;;;;;5047805;28;20033;-74
2022/01/13 06:29:55;;;;;;;61.85;22.70;;;-0.70;99.90;;;;;;5049043;28;20373;-74
2022/01/13 06:32:21;;;;;;;63.25;21.60;;;-0.70;99.90;;;;;;5040373;28;20130;-70
2022/01/13 06:34:48;;;;;;;61.72;22.10;;;-0.70;99.90;;;;;;5049271;28;20458;-72
2022/01/13 06:37:14;;;;;;;57.03;21.85;;;-0.70;99.90;;;;;;5046859;28;20041;-73
2022/01/13 06:39:40;;;;;;;60.58;22.58;;;-0.70;99.90;;;;;;5047647;28;20044;-73
2022/01/13 06:42:06;;;;;;;58.17;22.30;;;-0.70;99.90;;;;;;5044448;28;20040;-74
2022/01/13 06:44:32;;;;;;;64.20;22.40;;;-0.70;99.90;;;;;;5030281;28;20497;-74
2022/01/13 06:46:58;;;;;;;66.45;23.27;;;-0.70;99.90;;;;;;5047831;28;20029;-73
2022/01/13 06:49:23;;;;;;;59.72;21.25;;;-0.60;99.90;;;;;;5048089;28;20033;-72
2022/01/13 06:51:49;;;;;;;61.45;22.20;;;-0.60;99.90;;;;;;5029877;28;20033;-72
2022/01/13 06:54:15;;;;;;;61.75;23.42;;;-0.70;99.90;;;;;;5031060;28;20037;-73
2022/01/13 06:56:40;;;;;;;57.70;21.63;;;-0.60;99.90;;;;;;5047975;28;20061;-72
2022/01/13 06:59:10;;;;;;;67.13;22.98;;;-0.60;99.90;;;;;;5022175;28;20386;-73
2022/01/13 07:01:38;;;;;;;59.80;20.65;;;-0.70;99.90;;;;;;5024792;28;20033;-72
2022/01/13 07:04:04;;;;;;;59.08;20.95;;;-0.70;99.90;;;;;;5041515;28;20037;-71
2022/01/13 07:06:29;;;;;;;63.45;21.30;;;-0.60;99.90;;;;;;5042971;28;20037;-72
2022/01/13 07:08:55;;;;;;;61.80;22.27;;;-0.60;99.90;;;;;;5047951;28;20377;-73
2022/01/13 07:11:21;;;;;;;53.97;21.52;;;-0.70;99.90;;;;;;5044875;28;20090;-67
2022/01/13 07:13:46;;;;;;;55.47;20.45;;;-0.60;99.90;;;;;;5043893;28;20056;-71
2022/01/13 07:16:12;;;;;;;56.80;20.15;;;-0.60;99.90;;;;;;5029660;28;20471;-76
2022/01/13 07:18:41;;;;;;;57.70;20.63;;;-0.60;99.90;;;;;;5043088;28;20029;-74
2022/01/13 07:21:08;;;;;;;56.20;20.60;;;-0.60;99.90;;;;;;5048690;28;20029;-72
2022/01/13 07:23:35;;;;;;;57.95;20.75;;;-0.60;99.90;;;;;;5043774;28;20447;-72
2022/01/13 07:26:02;;;;;;;55.95;20.50;;;-0.50;99.90;;;;;;5027982;28;20124;-72
2022/01/13 07:28:29;;;;;;;56.95;20.85;;;-0.50;99.90;;;;;;5044139;28;20103;-74
2022/01/13 07:30:55;;;;;;;61.40;21.73;;;-0.50;99.90;;;;;;5029214;28;20119;-73
2022/01/13 07:33:21;;;;;;;58.60;21.50;;;-0.50;99.90;;;;;;5039394;28;20057;-68
2022/01/13 07:35:47;;;;;;;60.40;21.40;;;-0.40;99.90;;;;;;5036264;28;20061;-73
2022/01/13 07:38:12;;;;;;;58.05;21.35;;;-0.40;99.90;;;;;;5047210;28;20494;-73
2022/01/13 07:40:38;;;;;;;61.78;22.83;;;-0.40;99.90;;;;;;5042124;28;20508;-72
2022/01/13 07:43:04;;;;;;;60.38;21.80;;;-0.40;99.90;;;;;;5051978;28;20040;-72
2022/01/13 07:45:30;;;;;;;60.60;22.73;;;-0.40;99.90;;;;;;5047689;28;20466;-71
2022/01/13 07:47:56;;;;;;;60.88;22.52;;;-0.40;99.90;;;;;;5048549;28;20025;-71
2022/01/13 07:50:21;;;;;;;66.13;23.63;;;-0.40;99.90;;;;;;5036281;28;20055;-70
2022/01/13 07:52:47;;;;;;;60.88;23.70;;;-0.40;99.90;;;;;;5034981;28;20033;-76
2022/01/13 07:55:13;;;;;;;64.35;23.27;;;-0.30;99.90;;;;;;5017770;28;20078;-76
2022/01/13 07:57:39;;;;;;;65.88;24.08;;;-0.30;99.90;;;;;;5044037;28;20049;-73
2022/01/13 08:00:08;;;;;;;68.20;25.33;;;-0.30;99.90;;;;;;5051707;28;20418;-75
2022/01/13 08:02:34;;;;;;;72.43;26.52;;;-0.30;99.90;;;;;;5046828;28;20025;-71
2022/01/13 08:05:00;;;;;;;68.68;25.23;;;-0.40;99.90;;;;;;5043434;28;20038;-72
2022/01/13 08:07:26;;;;;;;66.38;24.92;;;-0.40;99.90;;;;;;5051064;28;20075;-70
2022/01/13 08:09:51;;;;;;;71.95;25.77;;;-0.30;99.90;;;;;;5037261;28;20063;-71
2022/01/13 08:12:17;;;;;;;72.03;25.80;;;-0.30;99.90;;;;;;5040590;28;20385;-74
2022/01/13 08:14:43;;;;;;;69.50;25.00;;;-0.30;99.90;;;;;;5046451;28;20162;-73
2022/01/13 08:17:18;;;;;;;70.57;26.08;;;-0.30;99.90;;;;;;5046382;28;20033;-72
2022/01/13 08:19:48;;;;;;;65.15;23.67;;;-0.20;99.90;;;;;;5018602;28;20033;-75
2022/01/13 08:22:14;;;;;;;62.23;23.90;;;-0.20;99.90;;;;;;5036721;28;20070;-75
2022/01/13 08:24:40;;;;;;;61.47;22.55;;;-0.10;99.90;;;;;;5046299;28;20045;-73
2022/01/13 08:27:06;;;;;;;44.22;17.17;;;-0.10;99.90;;;;;;5042259;28;20025;-75
2022/01/13 08:29:32;;;;;;;47.38;18.05;;;0.00;99.90;;;;;;5026947;28;20396;-73
2022/01/13 08:31:58;;;;;;;44.30;16.85;;;0.00;99.90;;;;;;5050766;28;20029;-72
2022/01/13 08:34:23;;;;;;;49.80;17.33;;;0.00;99.90;;;;;;5050954;28;20115;-74
2022/01/13 08:36:49;;;;;;;55.80;19.65;;;0.10;99.90;;;;;;5044482;28;20444;-74
2022/01/13 08:39:15;;;;;;;48.92;18.13;;;0.00;99.90;;;;;;5039589;28;20029;-70
2022/01/13 08:41:42;;;;;;;49.97;17.42;;;0.10;99.90;;;;;;5030548;28;20033;-73
2022/01/13 08:44:08;;;;;;;41.63;16.00;;;0.10;99.90;;;;;;5031752;28;20505;-72
2022/01/13 08:46:34;;;;;;;43.50;16.80;;;0.20;99.90;;;;;;5034483;28;20035;-72
2022/01/13 08:49:00;;;;;;;54.25;20.02;;;0.20;99.90;;;;;;5032786;28;20381;-72
2022/01/13 08:51:26;;;;;;;49.85;17.92;;;0.10;99.90;;;;;;5049082;28;20029;-68
2022/01/13 08:53:52;;;;;;;42.47;16.20;;;0.10;99.90;;;;;;5028598;28;20037;-72
2022/01/13 08:56:18;;;;;;;42.80;15.45;;;0.20;99.90;;;;;;5046292;28;20425;-74
2022/01/13 08:58:43;;;;;;;43.92;16.73;;;0.20;99.90;;;;;;5045613;28;20116;-73
2022/01/13 09:01:09;;;;;;;38.08;15.23;;;0.30;99.90;;;;;;5046568;28;20102;-73
2022/01/13 09:03:36;;;;;;;33.85;12.63;;;0.30;99.90;;;;;;5050241;28;20041;-75
2022/01/13 09:06:03;;;;;;;32.33;12.05;;;0.30;99.90;;;;;;5031599;28;20033;-77
2022/01/13 09:08:29;;;;;;;26.90;10.48;;;0.30;99.90;;;;;;5032072;28;20345;-73
2022/01/13 09:10:55;;;;;;;23.77;8.82;;;0.40;99.90;;;;;;5048401;28;20035;-75
2022/01/13 09:13:21;;;;;;;15.38;6.07;;;0.50;99.90;;;;;;5048951;28;20170;-75
2022/01/13 09:15:57;;;;;;;16.33;6.07;;;0.50;99.90;;;;;;5044503;28;20036;-73
2022/01/13 09:19:24;;;;;;;19.27;7.50;;;0.60;99.90;;;;;;5036434;28;20020;-74
2022/01/13 09:21:19;;;;;;;26.02;8.88;;;0.60;99.90;;;;;;5033656;28;20037;-75
2022/01/13 09:23:45;;;;;;;19.83;7.88;;;0.60;99.90;;;;;;5048573;28;20047;-74
2022/01/13 09:26:10;;;;;;;22.17;9.45;;;0.60;99.90;;;;;;5031672;28;20037;-72
2022/01/13 09:28:36;;;;;;;20.73;9.23;;;0.60;99.90;;;;;;5049686;28;20060;-73
2022/01/13 09:31:03;;;;;;;48.92;19.40;;;0.60;99.90;;;;;;5013554;28;20569;-75
2022/01/13 09:33:29;;;;;;;36.83;16.02;;;0.60;99.90;;;;;;5021949;28;20076;-71
2022/01/13 09:35:54;;;;;;;19.42;8.45;;;0.60;99.90;;;;;;5040388;28;20166;-73
2022/01/13 09:38:20;;;;;;;28.05;11.48;;;0.60;99.90;;;;;;5045620;28;20547;-72
2022/01/13 09:40:48;;;;;;;23.17;8.02;;;0.60;99.90;;;;;;5048128;28;20037;-71
2022/01/13 09:43:14;;;;;;;19.45;7.45;;;0.60;99.90;;;;;;5050597;28;20086;-72
2022/01/13 09:45:40;;;;;;;51.88;23.13;;;0.70;99.90;;;;;;5048331;28;20036;-71
2022/01/13 09:48:06;;;;;;;68.20;29.55;;;0.70;99.90;;;;;;5050052;28;20029;-72
2022/01/13 09:50:32;;;;;;;47.67;18.92;;;0.80;99.90;;;;;;5038120;28;20110;-68
2022/01/13 09:52:58;;;;;;;27.13;10.95;;;0.90;99.90;;;;;;5045877;28;20033;-73
2022/01/13 09:55:24;;;;;;;21.15;8.10;;;1.00;99.90;;;;;;5049891;28;20039;-72
2022/01/13 09:57:52;;;;;;;17.73;7.05;;;1.00;99.90;;;;;;5048798;28;20628;-71
2022/01/13 10:00:26;;;;;;;17.88;6.65;;;0.90;99.90;;;;;;5024289;28;20033;-72
2022/01/13 10:02:52;;;;;;;24.85;9.55;;;0.80;99.90;;;;;;5038659;28;20025;-74
2022/01/13 10:05:20;;;;;;;22.13;8.27;;;0.90;99.90;;;;;;5034797;28;20033;-72
2022/01/13 10:07:50;;;;;;;25.17;8.82;;;1.10;99.90;;;;;;5036288;28;20044;-72
2022/01/13 10:10:19;;;;;;;22.48;8.35;;;1.10;99.90;;;;;;5038875;28;20029;-73
2022/01/13 10:12:47;;;;;;;23.33;7.38;;;1.20;99.90;;;;;;5048071;28;20044;-73
2022/01/13 10:18:05;;;;;;;19.77;7.45;;;1.30;99.90;;;;;;5041905;28;20039;-75
2022/01/13 10:20:32;;;;;;;18.48;7.03;;;1.20;99.90;;;;;;5041844;28;20029;-70
2022/01/13 10:23:09;;;;;;;18.80;7.53;;;1.20;99.90;;;;;;5022275;28;20036;-74
2022/01/13 10:25:36;;;;;;;22.80;7.93;;;1.20;99.90;;;;;;5040605;28;20064;-70
2022/01/13 10:28:18;;;;;;;21.52;7.93;;;1.30;99.90;;;;;;5032806;28;20448;-73
2022/01/13 10:30:50;;;;;;;24.45;8.55;;;1.50;99.90;;;;;;5047566;28;20060;-73
2022/01/13 10:33:19;;;;;;;24.65;8.80;;;1.40;99.90;;;;;;5047735;28;20155;-73
2022/01/13 10:35:47;;;;;;;25.75;8.43;;;1.40;99.90;;;;;;5020486;28;20069;-72
2022/01/13 10:38:16;;;;;;;21.25;8.30;;;1.30;99.90;;;;;;5047185;28;20023;-72
2022/01/13 10:40:53;;;;;;;24.30;8.65;;;1.40;99.90;;;;;;5040759;28;20037;-74
2022/01/13 10:43:23;;;;;;;25.70;9.23;;;1.50;99.90;;;;;;5043973;28;20656;-73
2022/01/13 10:45:55;;;;;;;29.20;9.80;;;1.60;99.90;;;;;;5043042;28;20029;-71
2022/01/13 10:48:30;;;;;;;28.63;9.38;;;1.60;99.90;;;;;;5038097;28;20106;-72
2022/01/13 10:51:04;;;;;;;23.13;8.63;;;1.80;99.90;;;;;;5044884;28;20029;-72
2022/01/13 10:53:37;;;;;;;23.98;8.82;;;2.00;99.90;;;;;;5026469;28;20068;-74
2022/01/13 10:56:07;;;;;;;23.40;9.00;;;2.00;99.90;;;;;;5017364;28;20029;-72
2022/01/13 10:58:51;;;;;;;23.17;9.00;;;2.00;99.90;;;;;;5034975;28;20071;-71
2022/01/13 11:01:16;;;;;;;20.40;8.32;;;2.00;99.90;;;;;;5034034;28;20037;-72
2022/01/13 11:03:44;;;;;;;19.85;7.53;;;2.10;99.90;;;;;;5044255;28;20035;-74
2022/01/13 11:06:11;;;;;;;22.65;8.38;;;2.10;99.90;;;;;;5039036;28;20029;-74
2022/01/13 11:08:45;;;;;;;21.33;8.52;;;2.10;99.90;;;;;;5044024;28;20115;-70
2022/01/13 11:11:24;;;;;;;22.10;7.75;;;2.20;99.90;;;;;;5046919;28;20033;-73
2022/01/13 11:14:11;;;;;;;27.33;9.40;;;2.30;99.90;;;;;;5024273;28;20053;-73
2022/01/13 11:16:40;;;;;;;30.13;10.68;;;2.60;99.90;;;;;;5020125;28;20029;-71
2022/01/13 11:19:06;;;;;;;22.50;8.60;;;2.50;99.90;;;;;;5049190;28;20029;-73
2022/01/13 11:21:33;;;;;;;19.55;7.93;;;2.70;99.90;;;;;;5043152;28;20495;-73
2022/01/13 11:24:00;;;;;;;26.17;9.27;;;2.90;99.90;;;;;;5039527;28;20118;-74
2022/01/13 11:26:27;;;;;;;22.33;7.95;;;3.00;99.90;;;;;;5039204;28;20049;-74
2022/01/13 11:28:58;;;;;;;21.60;8.77;;;3.00;99.90;;;;;;5049507;28;20033;-70
2022/01/13 11:31:24;;;;;;;18.38;7.13;;;3.10;99.90;;;;;;5047001;28;20548;-70
2022/01/13 11:33:50;;;;;;;22.40;7.97;;;3.20;99.90;;;;;;5043198;28;20084;-73
2022/01/13 11:36:17;;;;;;;21.15;7.50;;;3.40;99.90;;;;;;5040762;28;20036;-73
2022/01/13 11:38:56;;;;;;;22.35;7.47;;;3.60;99.90;;;;;;5042780;28;20037;-73
2022/01/13 11:41:21;;;;;;;25.08;7.63;;;3.60;99.90;;;;;;5021247;28;20040;-70
2022/01/13 11:43:47;;;;;;;19.20;6.68;;;3.70;99.90;;;;;;5036929;28;20041;-73
2022/01/13 11:46:19;;;;;;;21.08;7.80;;;3.80;99.90;;;;;;5037897;28;20082;-71
2022/01/13 11:48:59;;;;;;;17.02;6.55;;;4.10;99.90;;;;;;5045345;28;20504;-71
2022/01/13 11:51:28;;;;;;;16.23;6.43;;;4.10;99.90;;;;;;5042859;28;20025;-72
2022/01/13 11:53:59;;;;;;;19.75;7.45;;;4.30;99.90;;;;;;5041667;28;20404;-73
2022/01/13 11:56:25;;;;;;;16.35;6.22;;;4.40;99.90;;;;;;5043124;28;20037;-74
2022/01/13 11:58:52;;;;;;;15.45;6.38;;;4.60;99.90;;;;;;5047949;28;20029;-73
2022/01/13 12:01:18;;;;;;;17.38;6.97;;;4.40;99.90;;;;;;5026450;28;20045;-72
2022/01/13 12:03:57;;;;;;;20.60;7.28;;;4.70;99.90;;;;;;5041950;28;20115;-73
2022/01/13 12:06:35;;;;;;;17.13;6.43;;;4.60;99.90;;;;;;5047983;28;20530;-74
2022/01/13 12:09:03;;;;;;;16.17;6.40;;;4.90;99.90;;;;;;5039947;28;21628;-70
2022/01/13 12:11:41;;;;;;;16.70;6.68;;;5.00;99.90;;;;;;5045331;28;20036;-72
2022/01/13 12:14:26;;;;;;;15.50;6.40;;;5.30;99.90;;;;;;5045880;28;20052;-70
2022/01/13 12:16:55;;;;;;;19.23;7.05;;;5.50;99.90;;;;;;5046160;28;20063;-69
2022/01/13 12:19:27;;;;;;;18.85;7.00;;;5.40;99.90;;;;;;5042888;28;20570;-67
2022/01/13 12:22:02;;;;;;;17.67;6.95;;;5.10;99.90;;;;;;5048188;28;20037;-71
2022/01/13 12:24:48;;;;;;;16.65;6.82;;;5.20;99.90;;;;;;5045265;28;20045;-71
2022/01/13 12:27:15;;;;;;;19.85;6.88;;;5.10;99.90;;;;;;5037505;28;20041;-69
2022/01/13 12:29:47;;;;;;;16.65;7.25;;;5.40;99.90;;;;;;5037311;28;20075;-66
2022/01/13 12:32:14;;;;;;;18.13;7.18;;;5.10;99.90;;;;;;5047400;28;20051;-70
2022/01/13 12:34:49;;;;;;;19.70;8.02;;;5.20;99.90;;;;;;5040081;28;20477;-66
2022/01/13 12:37:15;;;;;;;19.88;7.32;;;5.40;99.90;;;;;;5043487;28;20036;-73
2022/01/13 12:39:48;;;;;;;16.15;6.53;;;5.10;99.90;;;;;;5022523;28;20033;-67
2022/01/13 12:42:18;;;;;;;23.42;7.57;;;5.10;99.90;;;;;;5041356;28;20017;-71
2022/01/13 12:47:28;;;;;;;18.98;7.38;;;5.40;99.90;;;;;;5039711;28;20032;-71
2022/01/13 12:49:55;;;;;;;19.67;8.02;;;5.20;99.90;;;;;;5036411;28;20029;-70
2022/01/13 12:52:22;;;;;;;16.88;7.18;;;5.20;99.90;;;;;;5013297;28;20025;-70
2022/01/13 12:54:48;;;;;;;20.77;8.27;;;5.30;99.90;;;;;;5028033;28;20048;-70
2022/01/13 12:57:15;;;;;;;17.27;7.38;;;5.10;99.90;;;;;;5025445;28;20037;-71
2022/01/13 12:59:42;;;;;;;22.30;8.48;;;5.20;99.90;;;;;;5048578;28;20736;-67
2022/01/13 13:02:08;;;;;;;27.25;8.77;;;5.40;99.90;;;;;;5047609;28;20530;-72